sensor_id;sensor_type;location;lat;lon;timestamp;pressure;altitude;pressure_sealevel;temperature
35582;BMP180;21687;48.900;9.188;2023-02-15T00:01:17;99737.00;;;-2.60
35582;BMP180;21687;48.900;9.188;2023-02-15T00:03:43;99727.00;;;-2.70
35582;BMP180;21687;48.900;9.188;2023-02-15T00:06:09;99727.00;;;-2.80
35582;BMP180;21687;48.900;9.188;2023-02-15T00:08:36;99737.00;;;-2.80
35582;BMP180;21687;48.900;9.188;2023-02-15T00:11:13;99719.00;;;-2.90
35582;BMP180;21687;48.900;9.188;2023-02-15T00:13:40;99715.00;;;-2.90
35582;BMP180;21687;48.900;9.188;2023-02-15T00:16:12;99715.00;;;-2.90
35582;BMP180;21687;48.900;9.188;2023-02-15T00:18:41;99702.00;;;-3.00
35582;BMP180;21687;48.900;9.188;2023-02-15T00:21:09;99711.00;;;-2.90
35582;BMP180;21687;48.900;9.188;2023-02-15T00:23:36;99712.00;;;-3.00
35582;BMP180;21687;48.900;9.188;2023-02-15T00:26:08;99715.00;;;-3.00
35582;BMP180;21687;48.900;9.188;2023-02-15T00:28:35;99716.00;;;-3.00
35582;BMP180;21687;48.900;9.188;2023-02-15T00:31:11;99710.00;;;-3.00
35582;BMP180;21687;48.900;9.188;2023-02-15T00:33:38;99704.00;;;-3.00
35582;BMP180;21687;48.900;9.188;2023-02-15T00:36:07;99701.00;;;-2.90
35582;BMP180;21687;48.900;9.188;2023-02-15T00:38:34;99702.00;;;-2.60
35582;BMP180;21687;48.900;9.188;2023-02-15T00:41:03;99706.00;;;-2.50
35582;BMP180;21687;48.900;9.188;2023-02-15T00:43:31;99711.00;;;-2.40
35582;BMP180;21687;48.900;9.188;2023-02-15T00:45:58;99702.00;;;-2.30
35582;BMP180;21687;48.900;9.188;2023-02-15T00:48:25;99711.00;;;-2.20
35582;BMP180;21687;48.900;9.188;2023-02-15T00:50:53;99702.00;;;-2.10
35582;BMP180;21687;48.900;9.188;2023-02-15T00:53:21;99714.00;;;-2.00
35582;BMP180;21687;48.900;9.188;2023-02-15T00:55:48;99713.00;;;-2.00
35582;BMP180;21687;48.900;9.188;2023-02-15T00:58:15;99712.00;;;-2.00
35582;BMP180;21687;48.900;9.188;2023-02-15T01:00:44;99708.00;;;-2.10
35582;BMP180;21687;48.900;9.188;2023-02-15T01:03:12;99700.00;;;-2.10
35582;BMP180;21687;48.900;9.188;2023-02-15T01:05:39;99705.00;;;-2.10
35582;BMP180;21687;48.900;9.188;2023-02-15T01:08:05;99699.00;;;-2.10
35582;BMP180;21687;48.900;9.188;2023-02-15T01:10:33;99694.00;;;-2.10
35582;BMP180;21687;48.900;9.188;2023-02-15T01:12:59;99702.00;;;-2.40
35582;BMP180;21687;48.900;9.188;2023-02-15T01:15:26;99699.00;;;-2.20
35582;BMP180;21687;48.900;9.188;2023-02-15T01:17:52;99703.00;;;-2.20
35582;BMP180;21687;48.900;9.188;2023-02-15T01:20:26;99701.00;;;-2.10
35582;BMP180;21687;48.900;9.188;2023-02-15T01:22:56;99707.00;;;-2.10
35582;BMP180;21687;48.900;9.188;2023-02-15T01:25:23;99705.00;;;-2.20
35582;BMP180;21687;48.900;9.188;2023-02-15T01:27:53;99713.00;;;-2.30
35582;BMP180;21687;48.900;9.188;2023-02-15T01:30:21;99715.00;;;-2.20
35582;BMP180;21687;48.900;9.188;2023-02-15T01:32:48;99713.00;;;-2.10
35582;BMP180;21687;48.900;9.188;2023-02-15T01:35:14;99713.00;;;-2.20
35582;BMP180;21687;48.900;9.188;2023-02-15T01:37:40;99716.00;;;-2.20
35582;BMP180;21687;48.900;9.188;2023-02-15T01:40:11;99708.00;;;-2.20
35582;BMP180;21687;48.900;9.188;2023-02-15T01:42:38;99697.00;;;-2.30
35582;BMP180;21687;48.900;9.188;2023-02-15T01:45:24;99692.00;;;-2.20
35582;BMP180;21687;48.900;9.188;2023-02-15T01:50:41;99689.00;;;-2.20
35582;BMP180;21687;48.900;9.188;2023-02-15T01:53:28;99686.00;;;-2.40
35582;BMP180;21687;48.900;9.188;2023-02-15T01:56:15;99682.00;;;-2.30
35582;BMP180;21687;48.900;9.188;2023-02-15T01:58:43;99697.00;;;-2.50
35582;BMP180;21687;48.900;9.188;2023-02-15T02:01:12;99693.00;;;-2.50
35582;BMP180;21687;48.900;9.188;2023-02-15T02:04:09;99695.00;;;-2.50
35582;BMP180;21687;48.900;9.188;2023-02-15T02:06:39;99683.00;;;-2.70
35582;BMP180;21687;48.900;9.188;2023-02-15T02:09:06;99687.00;;;-2.60
35582;BMP180;21687;48.900;9.188;2023-02-15T02:11:33;99680.00;;;-2.60
35582;BMP180;21687;48.900;9.188;2023-02-15T02:14:00;99680.00;;;-2.60
35582;BMP180;21687;48.900;9.188;2023-02-15T02:30:45;99691.00;;;-2.70
35582;BMP180;21687;48.900;9.188;2023-02-15T02:33:51;99691.00;;;-2.80
35582;BMP180;21687;48.900;9.188;2023-02-15T02:36:41;99689.00;;;-2.80
35582;BMP180;21687;48.900;9.188;2023-02-15T02:42:10;99672.00;;;-2.60
35582;BMP180;21687;48.900;9.188;2023-02-15T02:47:55;99674.00;;;-2.50
35582;BMP180;21687;48.900;9.188;2023-02-15T02:50:27;99666.00;;;-2.60
35582;BMP180;21687;48.900;9.188;2023-02-15T02:52:56;99663.00;;;-2.50
35582;BMP180;21687;48.900;9.188;2023-02-15T02:55:30;99670.00;;;-2.60
35582;BMP180;21687;48.900;9.188;2023-02-15T02:58:11;99667.00;;;-2.50
35582;BMP180;21687;48.900;9.188;2023-02-15T03:00:46;99664.00;;;-2.50
35582;BMP180;21687;48.900;9.188;2023-02-15T03:03:30;99663.00;;;-2.50
35582;BMP180;21687;48.900;9.188;2023-02-15T03:06:02;99660.00;;;-2.60
35582;BMP180;21687;48.900;9.188;2023-02-15T03:08:36;99650.00;;;-2.60
35582;BMP180;21687;48.900;9.188;2023-02-15T03:11:10;99661.00;;;-2.70
35582;BMP180;21687;48.900;9.188;2023-02-15T03:13:43;99632.00;;;-2.60
35582;BMP180;21687;48.900;9.188;2023-02-15T03:16:15;99640.00;;;-2.50
35582;BMP180;21687;48.900;9.188;2023-02-15T03:19:26;99648.00;;;-2.60
35582;BMP180;21687;48.900;9.188;2023-02-15T03:21:58;99647.00;;;-2.90
35582;BMP180;21687;48.900;9.188;2023-02-15T03:24:43;99654.00;;;-2.60
35582;BMP180;21687;48.900;9.188;2023-02-15T03:27:17;99655.00;;;-2.60
35582;BMP180;21687;48.900;9.188;2023-02-15T03:29:49;99651.00;;;-2.50
35582;BMP180;21687;48.900;9.188;2023-02-15T03:32:19;99656.00;;;-2.60
35582;BMP180;21687;48.900;9.188;2023-02-15T03:34:46;99651.00;;;-2.70
35582;BMP180;21687;48.900;9.188;2023-02-15T03:37:26;99647.00;;;-2.60
35582;BMP180;21687;48.900;9.188;2023-02-15T03:40:19;99662.00;;;-2.60
35582;BMP180;21687;48.900;9.188;2023-02-15T03:45:55;99662.00;;;-2.70
35582;BMP180;21687;48.900;9.188;2023-02-15T03:48:39;99664.00;;;-2.70
35582;BMP180;21687;48.900;9.188;2023-02-15T03:51:16;99663.00;;;-2.70
35582;BMP180;21687;48.900;9.188;2023-02-15T03:54:08;99658.00;;;-2.70
35582;BMP180;21687;48.900;9.188;2023-02-15T03:56:40;99659.00;;;-2.60
35582;BMP180;21687;48.900;9.188;2023-02-15T03:59:08;99662.00;;;-2.60
35582;BMP180;21687;48.900;9.188;2023-02-15T04:06:58;99645.00;;;-2.50
35582;BMP180;21687;48.900;9.188;2023-02-15T04:09:24;99652.00;;;-2.50
35582;BMP180;21687;48.900;9.188;2023-02-15T04:12:09;99654.00;;;-2.50
35582;BMP180;21687;48.900;9.188;2023-02-15T04:14:35;99659.00;;;-2.50
35582;BMP180;21687;48.900;9.188;2023-02-15T04:17:20;99660.00;;;-2.40
35582;BMP180;21687;48.900;9.188;2023-02-15T04:19:46;99656.00;;;-2.40
35582;BMP180;21687;48.900;9.188;2023-02-15T04:22:32;99662.00;;;-2.50
35582;BMP180;21687;48.900;9.188;2023-02-15T04:25:17;99662.00;;;-2.50
35582;BMP180;21687;48.900;9.188;2023-02-15T04:27:52;99656.00;;;-2.50
35582;BMP180;21687;48.900;9.188;2023-02-15T04:30:21;99624.00;;;-2.50
35582;BMP180;21687;48.900;9.188;2023-02-15T04:32:48;99642.00;;;-2.50
35582;BMP180;21687;48.900;9.188;2023-02-15T04:35:14;99628.00;;;-2.40
35582;BMP180;21687;48.900;9.188;2023-02-15T04:37:41;99647.00;;;-2.40
35582;BMP180;21687;48.900;9.188;2023-02-15T04:40:10;99638.00;;;-2.40
35582;BMP180;21687;48.900;9.188;2023-02-15T04:42:36;99634.00;;;-2.50
35582;BMP180;21687;48.900;9.188;2023-02-15T04:45:03;99638.00;;;-2.60
35582;BMP180;21687;48.900;9.188;2023-02-15T04:47:32;99633.00;;;-2.60
35582;BMP180;21687;48.900;9.188;2023-02-15T04:49:58;99633.00;;;-2.70
35582;BMP180;21687;48.900;9.188;2023-02-15T04:52:25;99625.00;;;-2.80
35582;BMP180;21687;48.900;9.188;2023-02-15T04:54:51;99627.00;;;-2.90
35582;BMP180;21687;48.900;9.188;2023-02-15T04:57:18;99620.00;;;-2.90
35582;BMP180;21687;48.900;9.188;2023-02-15T04:59:47;99627.00;;;-2.80
35582;BMP180;21687;48.900;9.188;2023-02-15T05:02:13;99630.00;;;-2.80
35582;BMP180;21687;48.900;9.188;2023-02-15T05:04:39;99620.00;;;-2.80
35582;BMP180;21687;48.900;9.188;2023-02-15T05:07:06;99618.00;;;-3.10
35582;BMP180;21687;48.900;9.188;2023-02-15T05:09:32;99634.00;;;-3.10
35582;BMP180;21687;48.900;9.188;2023-02-15T05:11:59;99647.00;;;-2.90
35582;BMP180;21687;48.900;9.188;2023-02-15T05:14:25;99629.00;;;-2.90
35582;BMP180;21687;48.900;9.188;2023-02-15T05:16:51;99638.00;;;-2.80
35582;BMP180;21687;48.900;9.188;2023-02-15T05:19:19;99648.00;;;-2.70
35582;BMP180;21687;48.900;9.188;2023-02-15T05:21:46;99642.00;;;-2.70
35582;BMP180;21687;48.900;9.188;2023-02-15T05:24:12;99639.00;;;-2.70
35582;BMP180;21687;48.900;9.188;2023-02-15T05:26:57;99634.00;;;-2.70
35582;BMP180;21687;48.900;9.188;2023-02-15T05:29:41;99632.00;;;-2.80
35582;BMP180;21687;48.900;9.188;2023-02-15T05:32:08;99629.00;;;-2.90
35582;BMP180;21687;48.900;9.188;2023-02-15T05:34:34;99623.00;;;-3.10
35582;BMP180;21687;48.900;9.188;2023-02-15T05:37:00;99630.00;;;-3.00
35582;BMP180;21687;48.900;9.188;2023-02-15T05:39:26;99624.00;;;-2.90
35582;BMP180;21687;48.900;9.188;2023-02-15T05:41:53;99632.00;;;-2.90
35582;BMP180;21687;48.900;9.188;2023-02-15T05:44:19;99627.00;;;-2.80
35582;BMP180;21687;48.900;9.188;2023-02-15T05:46:45;99628.00;;;-2.70
35582;BMP180;21687;48.900;9.188;2023-02-15T05:49:11;99625.00;;;-2.70
35582;BMP180;21687;48.900;9.188;2023-02-15T05:51:41;99630.00;;;-2.80
35582;BMP180;21687;48.900;9.188;2023-02-15T05:54:07;99633.00;;;-2.70
35582;BMP180;21687;48.900;9.188;2023-02-15T05:56:33;99634.00;;;-2.90
35582;BMP180;21687;48.900;9.188;2023-02-15T05:58:59;99627.00;;;-2.90
35582;BMP180;21687;48.900;9.188;2023-02-15T06:01:26;99627.00;;;-2.90
35582;BMP180;21687;48.900;9.188;2023-02-15T06:03:52;99622.00;;;-3.00
35582;BMP180;21687;48.900;9.188;2023-02-15T06:06:18;99632.00;;;-3.00
35582;BMP180;21687;48.900;9.188;2023-02-15T06:08:44;99622.00;;;-3.00
35582;BMP180;21687;48.900;9.188;2023-02-15T06:11:10;99621.00;;;-3.10
35582;BMP180;21687;48.900;9.188;2023-02-15T06:13:37;99622.00;;;-3.00
35582;BMP180;21687;48.900;9.188;2023-02-15T06:16:03;99637.00;;;-3.10
35582;BMP180;21687;48.900;9.188;2023-02-15T06:18:29;99641.00;;;-3.10
35582;BMP180;21687;48.900;9.188;2023-02-15T06:20:55;99630.00;;;-3.10
35582;BMP180;21687;48.900;9.188;2023-02-15T06:23:22;99642.00;;;-3.20
35582;BMP180;21687;48.900;9.188;2023-02-15T06:25:48;99642.00;;;-3.20
35582;BMP180;21687;48.900;9.188;2023-02-15T06:28:14;99643.00;;;-3.10
35582;BMP180;21687;48.900;9.188;2023-02-15T06:30:40;99646.00;;;-3.00
35582;BMP180;21687;48.900;9.188;2023-02-15T06:33:07;99655.00;;;-3.00
35582;BMP180;21687;48.900;9.188;2023-02-15T06:35:33;99647.00;;;-2.90
35582;BMP180;21687;48.900;9.188;2023-02-15T06:37:59;99664.00;;;-3.00
35582;BMP180;21687;48.900;9.188;2023-02-15T06:40:26;99661.00;;;-2.90
35582;BMP180;21687;48.900;9.188;2023-02-15T06:42:52;99671.00;;;-3.00
35582;BMP180;21687;48.900;9.188;2023-02-15T06:45:18;99655.00;;;-2.90
35582;BMP180;21687;48.900;9.188;2023-02-15T06:47:45;99658.00;;;-2.90
35582;BMP180;21687;48.900;9.188;2023-02-15T06:50:12;99654.00;;;-3.00
35582;BMP180;21687;48.900;9.188;2023-02-15T06:52:38;99662.00;;;-3.00
35582;BMP180;21687;48.900;9.188;2023-02-15T06:55:05;99659.00;;;-3.00
35582;BMP180;21687;48.900;9.188;2023-02-15T06:57:32;99661.00;;;-3.10
35582;BMP180;21687;48.900;9.188;2023-02-15T06:59:59;99654.00;;;-3.10
35582;BMP180;21687;48.900;9.188;2023-02-15T07:02:25;99661.00;;;-3.10
35582;BMP180;21687;48.900;9.188;2023-02-15T07:04:51;99652.00;;;-3.00
35582;BMP180;21687;48.900;9.188;2023-02-15T07:07:18;99665.00;;;-3.00
35582;BMP180;21687;48.900;9.188;2023-02-15T07:09:44;99672.00;;;-3.00
35582;BMP180;21687;48.900;9.188;2023-02-15T07:12:11;99678.00;;;-2.80
35582;BMP180;21687;48.900;9.188;2023-02-15T07:14:55;99684.00;;;-2.70
35582;BMP180;21687;48.900;9.188;2023-02-15T07:17:24;99689.00;;;-2.60
35582;BMP180;21687;48.900;9.188;2023-02-15T07:19:54;99689.00;;;-2.70
35582;BMP180;21687;48.900;9.188;2023-02-15T07:22:20;99692.00;;;-2.70
35582;BMP180;21687;48.900;9.188;2023-02-15T07:24:47;99696.00;;;-2.50
35582;BMP180;21687;48.900;9.188;2023-02-15T07:27:15;99700.00;;;-2.40
35582;BMP180;21687;48.900;9.188;2023-02-15T07:29:41;99684.00;;;-2.50
35582;BMP180;21687;48.900;9.188;2023-02-15T07:32:07;99689.00;;;-2.50
35582;BMP180;21687;48.900;9.188;2023-02-15T07:34:33;99671.00;;;-2.50
35582;BMP180;21687;48.900;9.188;2023-02-15T07:36:59;99673.00;;;-2.50
35582;BMP180;21687;48.900;9.188;2023-02-15T07:39:26;99672.00;;;-2.50
35582;BMP180;21687;48.900;9.188;2023-02-15T07:41:52;99674.00;;;-2.50
35582;BMP180;21687;48.900;9.188;2023-02-15T07:44:18;99668.00;;;-2.50
35582;BMP180;21687;48.900;9.188;2023-02-15T07:46:45;99677.00;;;-2.40
35582;BMP180;21687;48.900;9.188;2023-02-15T07:49:11;99669.00;;;-2.40
35582;BMP180;21687;48.900;9.188;2023-02-15T07:51:37;99668.00;;;-2.30
35582;BMP180;21687;48.900;9.188;2023-02-15T07:54:03;99670.00;;;-2.30
35582;BMP180;21687;48.900;9.188;2023-02-15T07:56:30;99663.00;;;-2.20
35582;BMP180;21687;48.900;9.188;2023-02-15T07:58:56;99664.00;;;-2.20
35582;BMP180;21687;48.900;9.188;2023-02-15T08:01:33;99666.00;;;-2.30
35582;BMP180;21687;48.900;9.188;2023-02-15T08:04:00;99673.00;;;-2.20
35582;BMP180;21687;48.900;9.188;2023-02-15T08:06:28;99668.00;;;-2.10
35582;BMP180;21687;48.900;9.188;2023-02-15T08:08:55;99687.00;;;-2.00
35582;BMP180;21687;48.900;9.188;2023-02-15T08:11:26;99673.00;;;-1.80
35582;BMP180;21687;48.900;9.188;2023-02-15T08:16:47;99683.00;;;-1.50
35582;BMP180;21687;48.900;9.188;2023-02-15T08:19:28;99677.00;;;-1.50
35582;BMP180;21687;48.900;9.188;2023-02-15T08:21:59;99674.00;;;-1.30
35582;BMP180;21687;48.900;9.188;2023-02-15T08:24:28;99684.00;;;-1.20
35582;BMP180;21687;48.900;9.188;2023-02-15T08:26:55;99682.00;;;-1.60
35582;BMP180;21687;48.900;9.188;2023-02-15T08:29:23;99681.00;;;-1.30
35582;BMP180;21687;48.900;9.188;2023-02-15T08:31:54;99668.00;;;-1.40
35582;BMP180;21687;48.900;9.188;2023-02-15T08:34:21;99676.00;;;-1.50
35582;BMP180;21687;48.900;9.188;2023-02-15T08:36:47;99667.00;;;-1.20
35582;BMP180;21687;48.900;9.188;2023-02-15T08:39:15;99669.00;;;-1.40
35582;BMP180;21687;48.900;9.188;2023-02-15T08:41:45;99674.00;;;-1.20
35582;BMP180;21687;48.900;9.188;2023-02-15T08:44:12;99668.00;;;-1.20
35582;BMP180;21687;48.900;9.188;2023-02-15T08:46:40;99678.00;;;-1.20
35582;BMP180;21687;48.900;9.188;2023-02-15T08:49:07;99671.00;;;-1.10
35582;BMP180;21687;48.900;9.188;2023-02-15T08:51:36;99671.00;;;-1.20
35582;BMP180;21687;48.900;9.188;2023-02-15T08:54:08;99684.00;;;-1.20
35582;BMP180;21687;48.900;9.188;2023-02-15T08:56:39;99665.00;;;-1.10
35582;BMP180;21687;48.900;9.188;2023-02-15T08:59:10;99664.00;;;-1.20
35582;BMP180;21687;48.900;9.188;2023-02-15T09:01:37;99658.00;;;-1.20
35582;BMP180;21687;48.900;9.188;2023-02-15T09:04:05;99658.00;;;-1.30
35582;BMP180;21687;48.900;9.188;2023-02-15T09:06:35;99638.00;;;-1.40
35582;BMP180;21687;48.900;9.188;2023-02-15T09:09:01;99654.00;;;-1.40
35582;BMP180;21687;48.900;9.188;2023-02-15T09:11:32;99654.00;;;-1.40
35582;BMP180;21687;48.900;9.188;2023-02-15T09:14:01;99658.00;;;-1.50
35582;BMP180;21687;48.900;9.188;2023-02-15T09:16:30;99650.00;;;-1.40
35582;BMP180;21687;48.900;9.188;2023-02-15T09:18:58;99648.00;;;-1.40
35582;BMP180;21687;48.900;9.188;2023-02-15T09:21:25;99646.00;;;-1.40
35582;BMP180;21687;48.900;9.188;2023-02-15T09:23:56;99642.00;;;-1.40
35582;BMP180;21687;48.900;9.188;2023-02-15T09:26:23;99646.00;;;-1.50
35582;BMP180;21687;48.900;9.188;2023-02-15T09:28:53;99640.00;;;-1.30
35582;BMP180;21687;48.900;9.188;2023-02-15T09:31:26;99641.00;;;-1.10
35582;BMP180;21687;48.900;9.188;2023-02-15T09:33:53;99633.00;;;-1.00
35582;BMP180;21687;48.900;9.188;2023-02-15T09:36:26;99637.00;;;-1.10
35582;BMP180;21687;48.900;9.188;2023-02-15T09:39:07;99641.00;;;-0.90
35582;BMP180;21687;48.900;9.188;2023-02-15T09:41:37;99619.00;;;-0.90
35582;BMP180;21687;48.900;9.188;2023-02-15T09:47:18;99623.00;;;-1.00
35582;BMP180;21687;48.900;9.188;2023-02-15T09:52:43;99620.00;;;-0.80
35582;BMP180;21687;48.900;9.188;2023-02-15T09:58:32;99612.00;;;-0.80
35582;BMP180;21687;48.900;9.188;2023-02-15T10:04:05;99621.00;;;-0.70
35582;BMP180;21687;48.900;9.188;2023-02-15T10:07:05;99613.00;;;-0.50
35582;BMP180;21687;48.900;9.188;2023-02-15T10:13:07;99614.00;;;-0.30
35582;BMP180;21687;48.900;9.188;2023-02-15T10:15:43;99623.00;;;-0.30
35582;BMP180;21687;48.900;9.188;2023-02-15T10:24:13;99615.00;;;0.00
35582;BMP180;21687;48.900;9.188;2023-02-15T10:26:46;99617.00;;;0.10
35582;BMP180;21687;48.900;9.188;2023-02-15T10:32:17;99610.00;;;0.00
35582;BMP180;21687;48.900;9.188;2023-02-15T10:38:00;99605.00;;;-0.10
35582;BMP180;21687;48.900;9.188;2023-02-15T10:40:59;99600.00;;;0.00
35582;BMP180;21687;48.900;9.188;2023-02-15T10:43:54;99589.00;;;-0.10
35582;BMP180;21687;48.900;9.188;2023-02-15T11:04:34;99583.00;;;0.90
35582;BMP180;21687;48.900;9.188;2023-02-15T11:07:07;99585.00;;;1.10
35582;BMP180;21687;48.900;9.188;2023-02-15T11:09:44;99571.00;;;1.10
35582;BMP180;21687;48.900;9.188;2023-02-15T11:12:19;99578.00;;;1.20
35582;BMP180;21687;48.900;9.188;2023-02-15T11:14:57;99574.00;;;1.30
35582;BMP180;21687;48.900;9.188;2023-02-15T11:17:37;99577.00;;;1.40
35582;BMP180;21687;48.900;9.188;2023-02-15T11:22:53;99555.00;;;1.20
35582;BMP180;21687;48.900;9.188;2023-02-15T11:25:31;99562.00;;;1.20
35582;BMP180;21687;48.900;9.188;2023-02-15T11:28:00;99563.00;;;1.10
35582;BMP180;21687;48.900;9.188;2023-02-15T11:30:49;99563.00;;;1.10
35582;BMP180;21687;48.900;9.188;2023-02-15T11:36:01;99564.00;;;1.30
35582;BMP180;21687;48.900;9.188;2023-02-15T11:38:32;99555.00;;;1.30
35582;BMP180;21687;48.900;9.188;2023-02-15T11:41:27;99556.00;;;1.30
35582;BMP180;21687;48.900;9.188;2023-02-15T11:46:32;99561.00;;;1.30
35582;BMP180;21687;48.900;9.188;2023-02-15T11:48:59;99569.00;;;1.30
35582;BMP180;21687;48.900;9.188;2023-02-15T11:51:26;99548.00;;;1.40
35582;BMP180;21687;48.900;9.188;2023-02-15T11:53:54;99560.00;;;1.50
35582;BMP180;21687;48.900;9.188;2023-02-15T11:56:24;99553.00;;;1.40
35582;BMP180;21687;48.900;9.188;2023-02-15T12:01:33;99571.00;;;1.30
35582;BMP180;21687;48.900;9.188;2023-02-15T12:04:04;99551.00;;;1.40
35582;BMP180;21687;48.900;9.188;2023-02-15T12:06:35;99541.00;;;1.30
35582;BMP180;21687;48.900;9.188;2023-02-15T12:09:17;99546.00;;;1.40
35582;BMP180;21687;48.900;9.188;2023-02-15T12:11:45;99542.00;;;1.60
35582;BMP180;21687;48.900;9.188;2023-02-15T12:14:12;99546.00;;;1.70
35582;BMP180;21687;48.900;9.188;2023-02-15T12:16:45;99538.00;;;1.70
35582;BMP180;21687;48.900;9.188;2023-02-15T12:19:28;99515.00;;;1.80
35582;BMP180;21687;48.900;9.188;2023-02-15T12:21:54;99539.00;;;1.80
35582;BMP180;21687;48.900;9.188;2023-02-15T12:24:29;99522.00;;;1.90
35582;BMP180;21687;48.900;9.188;2023-02-15T12:27:03;99536.00;;;2.10
35582;BMP180;21687;48.900;9.188;2023-02-15T12:29:39;99525.00;;;2.20
35582;BMP180;21687;48.900;9.188;2023-02-15T12:32:09;99526.00;;;2.30
35582;BMP180;21687;48.900;9.188;2023-02-15T12:34:38;99524.00;;;2.50
35582;BMP180;21687;48.900;9.188;2023-02-15T12:40:21;99522.00;;;2.60
35582;BMP180;21687;48.900;9.188;2023-02-15T12:42:48;99508.00;;;2.60
35582;BMP180;21687;48.900;9.188;2023-02-15T12:45:33;99504.00;;;2.70
35582;BMP180;21687;48.900;9.188;2023-02-15T12:48:18;99512.00;;;2.90
35582;BMP180;21687;48.900;9.188;2023-02-15T12:50:46;99506.00;;;3.00
35582;BMP180;21687;48.900;9.188;2023-02-15T12:56:03;99497.00;;;3.20
35582;BMP180;21687;48.900;9.188;2023-02-15T12:58:37;99493.00;;;3.40
35582;BMP180;21687;48.900;9.188;2023-02-15T13:04:01;99487.00;;;3.60
35582;BMP180;21687;48.900;9.188;2023-02-15T13:06:30;99483.00;;;3.60
35582;BMP180;21687;48.900;9.188;2023-02-15T13:09:19;99481.00;;;3.70
35582;BMP180;21687;48.900;9.188;2023-02-15T13:11:48;99471.00;;;3.80
35582;BMP180;21687;48.900;9.188;2023-02-15T13:14:30;99469.00;;;3.90
35582;BMP180;21687;48.900;9.188;2023-02-15T13:17:00;99462.00;;;4.10
35582;BMP180;21687;48.900;9.188;2023-02-15T13:19:44;99463.00;;;4.10
35582;BMP180;21687;48.900;9.188;2023-02-15T13:22:15;99455.00;;;4.10
35582;BMP180;21687;48.900;9.188;2023-02-15T13:24:47;99451.00;;;4.20
35582;BMP180;21687;48.900;9.188;2023-02-15T13:27:20;99449.00;;;4.30
35582;BMP180;21687;48.900;9.188;2023-02-15T13:29:50;99459.00;;;4.40
35582;BMP180;21687;48.900;9.188;2023-02-15T13:32:28;99448.00;;;4.40
35582;BMP180;21687;48.900;9.188;2023-02-15T13:34:58;99438.00;;;4.50
35582;BMP180;21687;48.900;9.188;2023-02-15T13:37:51;99447.00;;;4.60
35582;BMP180;21687;48.900;9.188;2023-02-15T13:40:55;99449.00;;;4.50
35582;BMP180;21687;48.900;9.188;2023-02-15T13:43:43;99449.00;;;4.70
35582;BMP180;21687;48.900;9.188;2023-02-15T13:46:28;99437.00;;;4.70
35582;BMP180;21687;48.900;9.188;2023-02-15T14:11:15;99428.00;;;5.40
35582;BMP180;21687;48.900;9.188;2023-02-15T14:19:36;99419.00;;;5.50
35582;BMP180;21687;48.900;9.188;2023-02-15T14:22:27;99418.00;;;5.50
35582;BMP180;21687;48.900;9.188;2023-02-15T14:25:39;99421.00;;;5.50
35582;BMP180;21687;48.900;9.188;2023-02-15T14:30:32;99416.00;;;5.50
35582;BMP180;21687;48.900;9.188;2023-02-15T14:35:36;99426.00;;;5.70
35582;BMP180;21687;48.900;9.188;2023-02-15T14:48:46;99421.00;;;5.80
35582;BMP180;21687;48.900;9.188;2023-02-15T15:07:38;99432.00;;;6.00
35582;BMP180;21687;48.900;9.188;2023-02-15T15:19:04;99416.00;;;6.00
35582;BMP180;21687;48.900;9.188;2023-02-15T15:40:40;99427.00;;;5.70
35582;BMP180;21687;48.900;9.188;2023-02-15T15:49:30;99423.00;;;5.60
35582;BMP180;21687;48.900;9.188;2023-02-15T15:52:09;99425.00;;;5.50
35582;BMP180;21687;48.900;9.188;2023-02-15T15:54:39;99416.00;;;5.50
35582;BMP180;21687;48.900;9.188;2023-02-15T15:57:11;99425.00;;;5.40
35582;BMP180;21687;48.900;9.188;2023-02-15T15:59:44;99428.00;;;5.50
35582;BMP180;21687;48.900;9.188;2023-02-15T16:02:16;99423.00;;;5.40
35582;BMP180;21687;48.900;9.188;2023-02-15T16:04:43;99421.00;;;5.40
35582;BMP180;21687;48.900;9.188;2023-02-15T16:10:00;99412.00;;;5.10
35582;BMP180;21687;48.900;9.188;2023-02-15T16:12:32;99412.00;;;5.00
35582;BMP180;21687;48.900;9.188;2023-02-15T16:15:03;99428.00;;;4.90
35582;BMP180;21687;48.900;9.188;2023-02-15T16:17:32;99420.00;;;4.90
35582;BMP180;21687;48.900;9.188;2023-02-15T16:20:11;99424.00;;;4.90
35582;BMP180;21687;48.900;9.188;2023-02-15T16:22:40;99422.00;;;4.70
35582;BMP180;21687;48.900;9.188;2023-02-15T16:25:35;99426.00;;;4.60
35582;BMP180;21687;48.900;9.188;2023-02-15T16:28:11;99421.00;;;4.50
35582;BMP180;21687;48.900;9.188;2023-02-15T16:30:39;99431.00;;;4.50
35582;BMP180;21687;48.900;9.188;2023-02-15T16:33:11;99430.00;;;4.50
35582;BMP180;21687;48.900;9.188;2023-02-15T16:35:40;99429.00;;;4.40
35582;BMP180;21687;48.900;9.188;2023-02-15T16:38:09;99435.00;;;4.30
35582;BMP180;21687;48.900;9.188;2023-02-15T16:40:49;99428.00;;;4.20
35582;BMP180;21687;48.900;9.188;2023-02-15T16:43:24;99426.00;;;4.00
35582;BMP180;21687;48.900;9.188;2023-02-15T16:45:52;99428.00;;;4.00
35582;BMP180;21687;48.900;9.188;2023-02-15T16:48:23;99436.00;;;3.90
35582;BMP180;21687;48.900;9.188;2023-02-15T16:50:53;99434.00;;;3.80
35582;BMP180;21687;48.900;9.188;2023-02-15T16:53:24;99436.00;;;3.70
35582;BMP180;21687;48.900;9.188;2023-02-15T16:55:57;99440.00;;;3.70
35582;BMP180;21687;48.900;9.188;2023-02-15T16:58:41;99443.00;;;3.60
35582;BMP180;21687;48.900;9.188;2023-02-15T17:01:10;99443.00;;;3.50
35582;BMP180;21687;48.900;9.188;2023-02-15T17:03:38;99442.00;;;3.40
35582;BMP180;21687;48.900;9.188;2023-02-15T17:06:20;99455.00;;;3.30
35582;BMP180;21687;48.900;9.188;2023-02-15T17:08:47;99446.00;;;3.30
35582;BMP180;21687;48.900;9.188;2023-02-15T17:11:17;99449.00;;;3.20
35582;BMP180;21687;48.900;9.188;2023-02-15T17:16:33;99446.00;;;3.10
35582;BMP180;21687;48.900;9.188;2023-02-15T17:19:02;99451.00;;;3.00
35582;BMP180;21687;48.900;9.188;2023-02-15T17:21:37;99462.00;;;2.90
35582;BMP180;21687;48.900;9.188;2023-02-15T17:24:06;99455.00;;;2.80
35582;BMP180;21687;48.900;9.188;2023-02-15T17:26:41;99445.00;;;2.70
35582;BMP180;21687;48.900;9.188;2023-02-15T17:31:53;99465.00;;;2.50
35582;BMP180;21687;48.900;9.188;2023-02-15T17:39:59;99466.00;;;2.30
35582;BMP180;21687;48.900;9.188;2023-02-15T17:42:26;99464.00;;;2.40
35582;BMP180;21687;48.900;9.188;2023-02-15T17:44:52;99468.00;;;2.30
35582;BMP180;21687;48.900;9.188;2023-02-15T17:47:21;99468.00;;;2.20
35582;BMP180;21687;48.900;9.188;2023-02-15T17:49:48;99466.00;;;2.00
35582;BMP180;21687;48.900;9.188;2023-02-15T17:52:16;99469.00;;;1.80
35582;BMP180;21687;48.900;9.188;2023-02-15T17:54:43;99463.00;;;1.80
35582;BMP180;21687;48.900;9.188;2023-02-15T17:57:29;99464.00;;;1.80
35582;BMP180;21687;48.900;9.188;2023-02-15T17:59:56;99466.00;;;1.70
35582;BMP180;21687;48.900;9.188;2023-02-15T18:02:42;99468.00;;;1.60
35582;BMP180;21687;48.900;9.188;2023-02-15T18:05:27;99459.00;;;1.50
35582;BMP180;21687;48.900;9.188;2023-02-15T18:08:17;99435.00;;;1.50